Terminal Aerodrome Forecast
Issued by NWS Pocatello, ID

Home | Current Version | Previous Version | Text Only | Print | Product List | Glossary On
Versions: 1 2 3 4 5 6 7 8 9 10 11 12 13 14 15 16 17
000
FTUS45 KPIH 202200 AAA
TAFBYI
TAF AMD
KBYI 202236Z 2023/2118 26011KT P6SM VCTS SCT050 BKN080CB
      TEMPO 2023/2024 VRB20G35KT P6SM -TSRA BKN050CB OVC080CB
     FM210300 22010KT P6SM VCSH SCT080 BKN110=

USA.gov is the U.S. government's official web portal to all federal, state and local government web resources and services.